sensor_id;sensor_type;location;lat;lon;timestamp;pressure;altitude;pressure_sealevel;temperature;humidity
72395;BME280;60384;48.152;11.614;2023-07-20T00:00:19;95449.59;;;23.21;48.50
72395;BME280;60384;48.152;11.614;2023-07-20T00:03:20;95459.09;;;23.05;48.87
72395;BME280;60384;48.152;11.614;2023-07-20T00:06:23;95453.72;;;22.91;48.96
72395;BME280;60384;48.152;11.614;2023-07-20T00:09:25;95458.84;;;22.86;49.32
72395;BME280;60384;48.152;11.614;2023-07-20T00:12:28;95472.50;;;22.82;49.34
72395;BME280;60384;48.152;11.614;2023-07-20T00:15:30;95465.91;;;22.76;49.39
72395;BME280;60384;48.152;11.614;2023-07-20T00:18:32;95462.44;;;22.72;49.13
72395;BME280;60384;48.152;11.614;2023-07-20T00:21:33;95455.41;;;22.71;49.21
72395;BME280;60384;48.152;11.614;2023-07-20T00:24:35;95456.22;;;22.72;49.46
72395;BME280;60384;48.152;11.614;2023-07-20T00:27:38;95448.06;;;22.64;49.16
72395;BME280;60384;48.152;11.614;2023-07-20T00:30:40;95456.28;;;22.57;49.65
72395;BME280;60384;48.152;11.614;2023-07-20T00:33:44;95462.53;;;22.51;49.67
72395;BME280;60384;48.152;11.614;2023-07-20T00:36:46;95456.72;;;22.45;49.66
72395;BME280;60384;48.152;11.614;2023-07-20T00:39:49;95465.28;;;22.47;49.47
72395;BME280;60384;48.152;11.614;2023-07-20T00:42:52;95473.84;;;22.49;49.51
72395;BME280;60384;48.152;11.614;2023-07-20T00:45:57;95483.19;;;22.45;49.42
72395;BME280;60384;48.152;11.614;2023-07-20T00:48:59;95482.00;;;22.46;49.57
72395;BME280;60384;48.152;11.614;2023-07-20T00:52:02;95476.91;;;22.51;49.47
72395;BME280;60384;48.152;11.614;2023-07-20T00:55:04;95473.81;;;22.53;49.21
72395;BME280;60384;48.152;11.614;2023-07-20T00:58:07;95473.47;;;22.44;49.00
72395;BME280;60384;48.152;11.614;2023-07-20T01:01:09;95478.56;;;22.38;49.37
72395;BME280;60384;48.152;11.614;2023-07-20T01:04:11;95474.72;;;22.32;49.60
72395;BME280;60384;48.152;11.614;2023-07-20T01:07:14;95477.81;;;22.31;49.48
72395;BME280;60384;48.152;11.614;2023-07-20T01:10:18;95482.50;;;22.30;49.31
72395;BME280;60384;48.152;11.614;2023-07-20T01:13:22;95487.97;;;22.27;49.79
72395;BME280;60384;48.152;11.614;2023-07-20T01:16:27;95475.16;;;22.20;49.22
72395;BME280;60384;48.152;11.614;2023-07-20T01:19:28;95471.25;;;22.17;49.73
72395;BME280;60384;48.152;11.614;2023-07-20T01:22:37;95468.53;;;22.17;49.32
72395;BME280;60384;48.152;11.614;2023-07-20T01:25:51;95476.31;;;22.19;49.47
72395;BME280;60384;48.152;11.614;2023-07-20T01:29:11;95467.38;;;22.18;49.71
72395;BME280;60384;48.152;11.614;2023-07-20T01:32:17;95473.22;;;22.20;49.27
72395;BME280;60384;48.152;11.614;2023-07-20T01:35:20;95469.72;;;22.16;49.33
72395;BME280;60384;48.152;11.614;2023-07-20T01:38:23;95475.53;;;22.18;49.60
72395;BME280;60384;48.152;11.614;2023-07-20T01:41:26;95472.78;;;22.22;49.06
72395;BME280;60384;48.152;11.614;2023-07-20T01:44:27;95470.50;;;22.20;49.16
72395;BME280;60384;48.152;11.614;2023-07-20T01:47:31;95479.03;;;22.19;49.24
72395;BME280;60384;48.152;11.614;2023-07-20T01:50:32;95479.84;;;22.12;49.49
72395;BME280;60384;48.152;11.614;2023-07-20T01:53:34;95474.41;;;22.05;49.32
72395;BME280;60384;48.152;11.614;2023-07-20T01:56:36;95474.84;;;22.04;49.68
72395;BME280;60384;48.152;11.614;2023-07-20T01:59:38;95476.38;;;22.05;49.39
72395;BME280;60384;48.152;11.614;2023-07-20T02:02:41;95482.97;;;22.07;49.60
72395;BME280;60384;48.152;11.614;2023-07-20T02:05:44;95486.88;;;22.03;49.59
72395;BME280;60384;48.152;11.614;2023-07-20T02:08:45;95478.69;;;22.06;49.82
72395;BME280;60384;48.152;11.614;2023-07-20T02:11:47;95474.81;;;22.07;49.40
72395;BME280;60384;48.152;11.614;2023-07-20T02:14:48;95479.44;;;22.10;49.60
72395;BME280;60384;48.152;11.614;2023-07-20T02:17:52;95479.06;;;22.12;49.38
72395;BME280;60384;48.152;11.614;2023-07-20T02:20:54;95478.28;;;22.11;49.30
72395;BME280;60384;48.152;11.614;2023-07-20T02:23:56;95480.22;;;22.11;49.44
72395;BME280;60384;48.152;11.614;2023-07-20T02:26:57;95479.09;;;22.08;49.62
72395;BME280;60384;48.152;11.614;2023-07-20T02:29:59;95477.13;;;22.05;49.65
72395;BME280;60384;48.152;11.614;2023-07-20T02:33:02;95498.13;;;22.05;49.47
72395;BME280;60384;48.152;11.614;2023-07-20T02:36:05;95480.63;;;22.06;49.50
72395;BME280;60384;48.152;11.614;2023-07-20T02:39:07;95482.59;;;22.05;49.56
72395;BME280;60384;48.152;11.614;2023-07-20T02:42:08;95485.72;;;22.00;49.65
72395;BME280;60384;48.152;11.614;2023-07-20T02:45:10;95483.00;;;21.97;49.73
72395;BME280;60384;48.152;11.614;2023-07-20T02:48:14;95484.53;;;21.94;49.90
72395;BME280;60384;48.152;11.614;2023-07-20T02:51:15;95486.47;;;21.94;49.50
72395;BME280;60384;48.152;11.614;2023-07-20T02:54:17;95489.22;;;21.90;49.78
72395;BME280;60384;48.152;11.614;2023-07-20T02:57:19;95497.38;;;21.90;49.64
72395;BME280;60384;48.152;11.614;2023-07-20T03:00:20;95505.16;;;21.84;49.59
72395;BME280;60384;48.152;11.614;2023-07-20T03:03:24;95521.13;;;21.79;49.87
72395;BME280;60384;48.152;11.614;2023-07-20T03:06:26;95505.97;;;21.78;49.74
72395;BME280;60384;48.152;11.614;2023-07-20T03:09:28;95508.69;;;21.78;49.73
72395;BME280;60384;48.152;11.614;2023-07-20T03:12:29;95507.91;;;21.74;49.52
72395;BME280;60384;48.152;11.614;2023-07-20T03:15:31;95509.09;;;21.62;49.62
72395;BME280;60384;48.152;11.614;2023-07-20T03:18:34;95500.97;;;21.48;49.73
72395;BME280;60384;48.152;11.614;2023-07-20T03:21:36;95504.06;;;21.36;49.91
72395;BME280;60384;48.152;11.614;2023-07-20T03:24:41;95512.25;;;21.29;50.19
72395;BME280;60384;48.152;11.614;2023-07-20T03:27:43;95523.13;;;21.22;50.16
72395;BME280;60384;48.152;11.614;2023-07-20T03:30:45;95539.81;;;21.17;50.47
72395;BME280;60384;48.152;11.614;2023-07-20T03:33:48;95534.72;;;21.12;50.23
72395;BME280;60384;48.152;11.614;2023-07-20T03:36:51;95545.59;;;21.12;50.08
72395;BME280;60384;48.152;11.614;2023-07-20T03:39:53;95538.56;;;20.93;50.22
72395;BME280;60384;48.152;11.614;2023-07-20T03:42:54;95543.94;;;20.68;50.58
72395;BME280;60384;48.152;11.614;2023-07-20T03:45:56;95545.44;;;20.44;50.84
72395;BME280;60384;48.152;11.614;2023-07-20T03:48:59;95546.50;;;20.29;50.84
72395;BME280;60384;48.152;11.614;2023-07-20T03:52:01;95539.53;;;20.25;50.82
72395;BME280;60384;48.152;11.614;2023-07-20T03:55:05;95543.41;;;20.27;50.74
72395;BME280;60384;48.152;11.614;2023-07-20T03:58:06;95542.25;;;20.28;50.56
72395;BME280;60384;48.152;11.614;2023-07-20T04:01:08;95551.53;;;20.23;50.60
72395;BME280;60384;48.152;11.614;2023-07-20T04:04:13;95556.22;;;20.30;50.46
72395;BME280;60384;48.152;11.614;2023-07-20T04:07:15;95550.00;;;20.30;50.38
72395;BME280;60384;48.152;11.614;2023-07-20T04:10:16;95551.16;;;20.25;50.48
72395;BME280;60384;48.152;11.614;2023-07-20T04:13:18;95561.97;;;20.18;50.38
72395;BME280;60384;48.152;11.614;2023-07-20T04:16:20;95565.03;;;20.13;50.53
72395;BME280;60384;48.152;11.614;2023-07-20T04:19:23;95551.06;;;20.11;50.61
72395;BME280;60384;48.152;11.614;2023-07-20T04:22:24;95546.06;;;20.16;50.36
72395;BME280;60384;48.152;11.614;2023-07-20T04:25:27;95551.47;;;20.16;50.37
72395;BME280;60384;48.152;11.614;2023-07-20T04:28:29;95555.75;;;20.17;50.30
72395;BME280;60384;48.152;11.614;2023-07-20T04:31:32;95546.47;;;20.18;50.37
72395;BME280;60384;48.152;11.614;2023-07-20T04:34:36;95551.13;;;20.18;50.25
72395;BME280;60384;48.152;11.614;2023-07-20T04:37:38;95561.59;;;20.16;50.47
72395;BME280;60384;48.152;11.614;2023-07-20T04:40:48;95559.25;;;20.14;50.39
72395;BME280;60384;48.152;11.614;2023-07-20T04:43:50;95560.81;;;20.15;50.49
72395;BME280;60384;48.152;11.614;2023-07-20T04:46:59;95563.13;;;20.17;50.52
72395;BME280;60384;48.152;11.614;2023-07-20T04:50:02;95565.06;;;20.16;50.31
72395;BME280;60384;48.152;11.614;2023-07-20T04:53:05;95564.66;;;20.14;50.41
72395;BME280;60384;48.152;11.614;2023-07-20T04:56:06;95571.25;;;20.13;50.35
72395;BME280;60384;48.152;11.614;2023-07-20T04:59:09;95573.97;;;20.13;50.43
72395;BME280;60384;48.152;11.614;2023-07-20T05:02:11;95570.88;;;20.18;50.42
72395;BME280;60384;48.152;11.614;2023-07-20T05:05:14;95573.25;;;20.27;50.39
72395;BME280;60384;48.152;11.614;2023-07-20T05:08:15;95575.19;;;20.30;50.38
72395;BME280;60384;48.152;11.614;2023-07-20T05:11:17;95579.84;;;20.30;50.35
72395;BME280;60384;48.152;11.614;2023-07-20T05:14:19;95581.41;;;20.27;50.41
72395;BME280;60384;48.152;11.614;2023-07-20T05:17:22;95580.22;;;20.28;50.51
72395;BME280;60384;48.152;11.614;2023-07-20T05:20:27;95569.38;;;20.28;50.54
72395;BME280;60384;48.152;11.614;2023-07-20T05:23:28;95578.69;;;20.31;50.64
72395;BME280;60384;48.152;11.614;2023-07-20T05:26:30;95583.38;;;20.34;50.43
72395;BME280;60384;48.152;11.614;2023-07-20T05:29:33;95581.47;;;20.38;50.46
72395;BME280;60384;48.152;11.614;2023-07-20T05:32:35;95577.22;;;20.40;50.53
72395;BME280;60384;48.152;11.614;2023-07-20T05:35:38;95578.34;;;20.39;50.51
72395;BME280;60384;48.152;11.614;2023-07-20T05:38:40;95572.94;;;20.39;50.74
72395;BME280;60384;48.152;11.614;2023-07-20T05:41:41;95575.66;;;20.39;50.78
72395;BME280;60384;48.152;11.614;2023-07-20T05:44:43;95577.56;;;20.35;50.83
72395;BME280;60384;48.152;11.614;2023-07-20T05:47:44;95583.38;;;20.34;50.87
72395;BME280;60384;48.152;11.614;2023-07-20T05:50:48;95589.22;;;20.32;50.95
72395;BME280;60384;48.152;11.614;2023-07-20T05:53:49;95591.13;;;20.32;51.03
72395;BME280;60384;48.152;11.614;2023-07-20T05:56:51;95586.50;;;20.32;51.00
72395;BME280;60384;48.152;11.614;2023-07-20T05:59:52;95592.69;;;20.33;51.11
72395;BME280;60384;48.152;11.614;2023-07-20T06:02:54;95592.63;;;20.29;51.06
72395;BME280;60384;48.152;11.614;2023-07-20T06:05:59;95591.47;;;20.27;51.14
72395;BME280;60384;48.152;11.614;2023-07-20T06:09:02;95591.06;;;20.25;51.16
72395;BME280;60384;48.152;11.614;2023-07-20T06:12:06;95597.72;;;20.34;51.06
72395;BME280;60384;48.152;11.614;2023-07-20T06:15:23;95599.69;;;20.41;50.95
72395;BME280;60384;48.152;11.614;2023-07-20T06:18:25;95601.25;;;20.42;50.98
72395;BME280;60384;48.152;11.614;2023-07-20T06:21:28;95596.66;;;20.49;50.92
72395;BME280;60384;48.152;11.614;2023-07-20T06:24:29;95590.84;;;20.54;50.86
72395;BME280;60384;48.152;11.614;2023-07-20T06:27:31;95588.50;;;20.56;50.80
72395;BME280;60384;48.152;11.614;2023-07-20T06:30:33;95590.88;;;20.61;50.85
72395;BME280;60384;48.152;11.614;2023-07-20T06:33:35;95592.81;;;20.65;50.74
72395;BME280;60384;48.152;11.614;2023-07-20T06:36:38;95592.81;;;20.61;50.85
72395;BME280;60384;48.152;11.614;2023-07-20T06:39:39;95582.75;;;20.65;50.92
72395;BME280;60384;48.152;11.614;2023-07-20T06:42:41;95593.59;;;20.69;50.78
72395;BME280;60384;48.152;11.614;2023-07-20T06:45:43;95591.28;;;20.74;50.79
72395;BME280;60384;48.152;11.614;2023-07-20T06:48:47;95590.91;;;20.79;50.89
72395;BME280;60384;48.152;11.614;2023-07-20T06:51:50;95584.34;;;20.84;50.96
72395;BME280;60384;48.152;11.614;2023-07-20T06:54:52;95585.88;;;20.81;50.86
72395;BME280;60384;48.152;11.614;2023-07-20T06:57:53;95581.22;;;20.75;51.05
72395;BME280;60384;48.152;11.614;2023-07-20T07:00:55;95594.81;;;20.78;51.04
72395;BME280;60384;48.152;11.614;2023-07-20T07:03:56;95594.41;;;20.80;50.95
72395;BME280;60384;48.152;11.614;2023-07-20T07:06:59;95594.44;;;20.87;50.82
72395;BME280;60384;48.152;11.614;2023-07-20T07:10:01;95588.25;;;20.90;50.86
72395;BME280;60384;48.152;11.614;2023-07-20T07:13:05;95588.25;;;20.93;50.80
72395;BME280;60384;48.152;11.614;2023-07-20T07:16:06;95588.25;;;20.93;51.04
72395;BME280;60384;48.152;11.614;2023-07-20T07:19:08;95582.44;;;20.95;50.99
72395;BME280;60384;48.152;11.614;2023-07-20T07:22:11;95587.09;;;21.05;50.82
72395;BME280;60384;48.152;11.614;2023-07-20T07:25:14;95590.97;;;21.08;50.83
72395;BME280;60384;48.152;11.614;2023-07-20T07:28:15;95589.09;;;21.15;50.72
72395;BME280;60384;48.152;11.614;2023-07-20T07:31:17;95586.75;;;21.21;50.77
72395;BME280;60384;48.152;11.614;2023-07-20T07:34:18;95589.91;;;21.30;50.61
72395;BME280;60384;48.152;11.614;2023-07-20T07:37:21;95590.28;;;21.28;50.82
72395;BME280;60384;48.152;11.614;2023-07-20T07:40:23;95604.25;;;21.27;50.85
72395;BME280;60384;48.152;11.614;2023-07-20T07:43:25;95586.78;;;21.28;50.76
72395;BME280;60384;48.152;11.614;2023-07-20T07:46:26;95588.72;;;21.34;50.94
72395;BME280;60384;48.152;11.614;2023-07-20T07:49:28;95593.00;;;21.42;50.60
72395;BME280;60384;48.152;11.614;2023-07-20T07:52:31;95594.94;;;21.46;50.73
72395;BME280;60384;48.152;11.614;2023-07-20T07:55:32;95593.78;;;21.54;50.50
72395;BME280;60384;48.152;11.614;2023-07-20T07:58:34;95591.47;;;21.52;50.91
72395;BME280;60384;48.152;11.614;2023-07-20T08:01:35;95589.91;;;21.62;50.74
72395;BME280;60384;48.152;11.614;2023-07-20T08:04:40;95595.34;;;21.69;50.64
72395;BME280;60384;48.152;11.614;2023-07-20T08:07:43;95597.28;;;21.68;50.75
72395;BME280;60384;48.152;11.614;2023-07-20T08:10:45;95589.50;;;21.74;50.45
72395;BME280;60384;48.152;11.614;2023-07-20T08:13:47;95587.56;;;21.85;50.49
72395;BME280;60384;48.152;11.614;2023-07-20T08:16:49;95591.41;;;21.88;50.39
72395;BME280;60384;48.152;11.614;2023-07-20T08:19:50;95591.81;;;21.90;50.63
72395;BME280;60384;48.152;11.614;2023-07-20T08:22:54;95600.78;;;21.97;50.39
72395;BME280;60384;48.152;11.614;2023-07-20T08:25:55;95592.63;;;21.97;50.38
72395;BME280;60384;48.152;11.614;2023-07-20T08:28:57;95594.56;;;21.97;50.74
72395;BME280;60384;48.152;11.614;2023-07-20T08:32:01;95603.47;;;22.08;50.74
72395;BME280;60384;48.152;11.614;2023-07-20T08:35:03;95598.38;;;22.17;50.26
72395;BME280;60384;48.152;11.614;2023-07-20T08:38:07;95603.44;;;22.18;50.28
72395;BME280;60384;48.152;11.614;2023-07-20T08:41:09;95602.28;;;22.27;50.27
72395;BME280;60384;48.152;11.614;2023-07-20T08:44:10;95596.78;;;22.41;50.07
72395;BME280;60384;48.152;11.614;2023-07-20T08:47:12;95595.16;;;22.57;49.79
72395;BME280;60384;48.152;11.614;2023-07-20T08:50:15;95602.50;;;22.71;50.13
72395;BME280;60384;48.152;11.614;2023-07-20T08:53:19;95606.03;;;22.57;50.37
72395;BME280;60384;48.152;11.614;2023-07-20T08:56:21;95596.41;;;22.32;50.86
72395;BME280;60384;48.152;11.614;2023-07-20T08:59:25;95600.72;;;22.25;50.44
72395;BME280;60384;48.152;11.614;2023-07-20T09:02:28;95592.16;;;22.23;50.73
72395;BME280;60384;48.152;11.614;2023-07-20T09:05:30;95592.16;;;22.31;50.85
72395;BME280;60384;48.152;11.614;2023-07-20T09:08:33;95595.22;;;22.43;50.24
72395;BME280;60384;48.152;11.614;2023-07-20T09:11:39;95602.19;;;22.51;50.50
72395;BME280;60384;48.152;11.614;2023-07-20T09:14:42;95594.75;;;22.66;50.24
72395;BME280;60384;48.152;11.614;2023-07-20T09:17:47;95596.66;;;22.73;50.43
72395;BME280;60384;48.152;11.614;2023-07-20T09:20:49;95589.63;;;22.79;49.95
72395;BME280;60384;48.152;11.614;2023-07-20T09:23:52;95590.00;;;22.84;50.33
72395;BME280;60384;48.152;11.614;2023-07-20T09:26:57;95575.63;;;22.84;50.13
72395;BME280;60384;48.152;11.614;2023-07-20T09:30:04;95575.63;;;22.80;50.27
72395;BME280;60384;48.152;11.614;2023-07-20T09:33:07;95577.13;;;22.92;50.11
72395;BME280;60384;48.152;11.614;2023-07-20T09:36:19;95579.00;;;23.05;49.87
72395;BME280;60384;48.152;11.614;2023-07-20T09:39:22;95581.28;;;23.07;49.93
72395;BME280;60384;48.152;11.614;2023-07-20T09:42:24;95572.41;;;22.96;50.03
72395;BME280;60384;48.152;11.614;2023-07-20T09:45:30;95572.41;;;22.99;50.27
72395;BME280;60384;48.152;11.614;2023-07-20T09:48:34;95576.63;;;23.07;50.02
72395;BME280;60384;48.152;11.614;2023-07-20T09:51:35;95573.03;;;23.21;50.06
72395;BME280;60384;48.152;11.614;2023-07-20T09:54:39;95571.22;;;23.04;49.68
72395;BME280;60384;48.152;11.614;2023-07-20T09:57:41;95576.28;;;23.02;49.82
72395;BME280;60384;48.152;11.614;2023-07-20T10:00:43;95574.78;;;22.94;49.98
72395;BME280;60384;48.152;11.614;2023-07-20T10:03:51;95564.66;;;22.94;49.89
72395;BME280;60384;48.152;11.614;2023-07-20T10:06:52;95564.97;;;23.03;49.71
72395;BME280;60384;48.152;11.614;2023-07-20T10:09:57;95557.88;;;23.17;49.50
72395;BME280;60384;48.152;11.614;2023-07-20T10:13:01;95565.59;;;23.29;49.77
72395;BME280;60384;48.152;11.614;2023-07-20T10:16:03;95571.66;;;23.54;49.11
72395;BME280;60384;48.152;11.614;2023-07-20T10:19:16;95570.09;;;23.53;49.25
72395;BME280;60384;48.152;11.614;2023-07-20T10:22:19;95553.53;;;23.26;49.96
72395;BME280;60384;48.152;11.614;2023-07-20T10:25:23;95567.69;;;23.03;49.90
72395;BME280;60384;48.152;11.614;2023-07-20T10:28:25;95564.25;;;22.96;50.24
72395;BME280;60384;48.152;11.614;2023-07-20T10:31:27;95566.56;;;22.97;50.48
72395;BME280;60384;48.152;11.614;2023-07-20T10:34:29;95560.72;;;22.99;50.13
72395;BME280;60384;48.152;11.614;2023-07-20T10:37:50;95562.25;;;23.03;49.92
72395;BME280;60384;48.152;11.614;2023-07-20T10:40:56;95559.97;;;22.95;49.93
72395;BME280;60384;48.152;11.614;2023-07-20T10:43:58;95559.22;;;22.94;49.94
72395;BME280;60384;48.152;11.614;2023-07-20T10:47:00;95553.56;;;23.19;49.84
72395;BME280;60384;48.152;11.614;2023-07-20T10:50:03;95544.19;;;23.27;49.56
72395;BME280;60384;48.152;11.614;2023-07-20T10:53:09;95547.53;;;23.45;49.61
72395;BME280;60384;48.152;11.614;2023-07-20T10:56:13;95539.31;;;23.56;49.53
72395;BME280;60384;48.152;11.614;2023-07-20T10:59:17;95552.44;;;23.68;49.15
72395;BME280;60384;48.152;11.614;2023-07-20T11:02:19;95543.72;;;23.84;48.88
72395;BME280;60384;48.152;11.614;2023-07-20T11:05:34;95546.94;;;23.72;49.39
72395;BME280;60384;48.152;11.614;2023-07-20T11:08:39;95543.09;;;23.66;49.39
72395;BME280;60384;48.152;11.614;2023-07-20T11:11:43;95535.34;;;23.61;49.73
72395;BME280;60384;48.152;11.614;2023-07-20T11:14:52;95537.63;;;23.69;49.74
72395;BME280;60384;48.152;11.614;2023-07-20T11:18:02;95536.53;;;24.01;49.00
72395;BME280;60384;48.152;11.614;2023-07-20T11:21:12;95527.00;;;24.16;48.85
72395;BME280;60384;48.152;11.614;2023-07-20T11:24:13;95527.72;;;24.23;48.56
72395;BME280;60384;48.152;11.614;2023-07-20T11:27:16;95527.78;;;24.20;48.91
72395;BME280;60384;48.152;11.614;2023-07-20T11:30:19;95524.34;;;24.09;49.40
72395;BME280;60384;48.152;11.614;2023-07-20T11:33:21;95523.50;;;24.19;48.88
72395;BME280;60384;48.152;11.614;2023-07-20T11:36:22;95521.53;;;24.50;48.89
72395;BME280;60384;48.152;11.614;2023-07-20T11:39:24;95519.56;;;24.50;48.85
72395;BME280;60384;48.152;11.614;2023-07-20T11:42:27;95519.56;;;24.50;49.17
72395;BME280;60384;48.152;11.614;2023-07-20T11:45:30;95518.34;;;24.24;49.41
72395;BME280;60384;48.152;11.614;2023-07-20T11:48:33;95516.31;;;23.95;49.73
72395;BME280;60384;48.152;11.614;2023-07-20T11:51:34;95515.47;;;24.01;49.74
72395;BME280;60384;48.152;11.614;2023-07-20T11:54:38;95516.81;;;24.23;49.58
72395;BME280;60384;48.152;11.614;2023-07-20T11:57:41;95501.56;;;24.56;48.80
72395;BME280;60384;48.152;11.614;2023-07-20T12:01:01;95503.25;;;24.74;48.54
72395;BME280;60384;48.152;11.614;2023-07-20T12:04:04;95500.34;;;24.88;48.55
72395;BME280;60384;48.152;11.614;2023-07-20T12:07:07;95489.59;;;25.27;48.03
72395;BME280;60384;48.152;11.614;2023-07-20T12:10:10;95481.53;;;25.86;47.22
72395;BME280;60384;48.152;11.614;2023-07-20T12:13:13;95485.72;;;26.34;46.64
72395;BME280;60384;48.152;11.614;2023-07-20T12:16:15;95483.94;;;27.32;44.20
72395;BME280;60384;48.152;11.614;2023-07-20T12:19:17;95477.91;;;26.32;46.34
72395;BME280;60384;48.152;11.614;2023-07-20T12:22:18;95484.41;;;26.42;46.10
72395;BME280;60384;48.152;11.614;2023-07-20T12:25:20;95477.72;;;25.61;47.80
72395;BME280;60384;48.152;11.614;2023-07-20T12:28:23;95483.38;;;25.73;47.68
72395;BME280;60384;48.152;11.614;2023-07-20T12:31:26;95472.97;;;25.65;48.19
72395;BME280;60384;48.152;11.614;2023-07-20T12:34:28;95462.66;;;27.97;43.93
72395;BME280;60384;48.152;11.614;2023-07-20T12:37:29;95457.94;;;30.74;39.75
72395;BME280;60384;48.152;11.614;2023-07-20T12:40:31;95455.66;;;32.35;37.77
72395;BME280;60384;48.152;11.614;2023-07-20T12:43:34;95452.34;;;33.06;37.71
72395;BME280;60384;48.152;11.614;2023-07-20T12:46:36;95446.91;;;34.30;37.14
72395;BME280;60384;48.152;11.614;2023-07-20T12:49:38;95444.63;;;34.29;38.04
72395;BME280;60384;48.152;11.614;2023-07-20T12:52:40;95442.59;;;33.76;39.42
72395;BME280;60384;48.152;11.614;2023-07-20T12:55:42;95451.22;;;32.01;42.71
72395;BME280;60384;48.152;11.614;2023-07-20T12:58:45;95453.94;;;31.55;43.61
72395;BME280;60384;48.152;11.614;2023-07-20T13:01:49;95451.97;;;31.16;45.31
72395;BME280;60384;48.152;11.614;2023-07-20T13:04:51;95450.28;;;32.04;44.26
72395;BME280;60384;48.152;11.614;2023-07-20T13:07:52;95440.03;;;31.19;46.34
72395;BME280;60384;48.152;11.614;2023-07-20T13:10:54;95441.63;;;31.56;45.78
72395;BME280;60384;48.152;11.614;2023-07-20T13:13:57;95424.00;;;30.56;47.72
72395;BME280;60384;48.152;11.614;2023-07-20T13:16:59;95431.34;;;29.37;49.47
72395;BME280;60384;48.152;11.614;2023-07-20T13:20:00;95422.16;;;30.09;48.40
72395;BME280;60384;48.152;11.614;2023-07-20T13:23:04;95423.38;;;30.08;48.01
72395;BME280;60384;48.152;11.614;2023-07-20T13:26:06;95422.31;;;30.58;46.87
72395;BME280;60384;48.152;11.614;2023-07-20T13:29:09;95428.53;;;31.21;46.37
72395;BME280;60384;48.152;11.614;2023-07-20T13:32:12;95418.81;;;30.67;46.76
72395;BME280;60384;48.152;11.614;2023-07-20T13:35:14;95417.47;;;30.19;48.21
72395;BME280;60384;48.152;11.614;2023-07-20T13:38:16;95407.28;;;30.28;47.95
72395;BME280;60384;48.152;11.614;2023-07-20T13:41:18;95422.66;;;29.26;49.42
72395;BME280;60384;48.152;11.614;2023-07-20T13:44:21;95417.56;;;30.06;47.96
72395;BME280;60384;48.152;11.614;2023-07-20T13:47:23;95408.53;;;30.58;47.04
72395;BME280;60384;48.152;11.614;2023-07-20T13:50:24;95405.38;;;30.16;48.65
72395;BME280;60384;48.152;11.614;2023-07-20T13:53:26;95398.38;;;30.95;47.14
72395;BME280;60384;48.152;11.614;2023-07-20T13:56:29;95388.47;;;30.67;48.25
72395;BME280;60384;48.152;11.614;2023-07-20T13:59:33;95401.44;;;30.26;48.32
72395;BME280;60384;48.152;11.614;2023-07-20T14:02:35;95386.50;;;29.49;48.81
72395;BME280;60384;48.152;11.614;2023-07-20T14:05:37;95383.72;;;29.15;49.92
72395;BME280;60384;48.152;11.614;2023-07-20T14:08:38;95374.97;;;29.64;48.62
72395;BME280;60384;48.152;11.614;2023-07-20T14:11:41;95373.47;;;30.06;48.15
72395;BME280;60384;48.152;11.614;2023-07-20T14:14:44;95379.09;;;30.24;47.30
72395;BME280;60384;48.152;11.614;2023-07-20T14:17:45;95363.66;;;30.36;47.73
72395;BME280;60384;48.152;11.614;2023-07-20T14:20:47;95367.13;;;30.49;47.65
72395;BME280;60384;48.152;11.614;2023-07-20T14:23:51;95363.97;;;30.69;47.70
72395;BME280;60384;48.152;11.614;2023-07-20T14:26:53;95364.16;;;30.74;47.00
72395;BME280;60384;48.152;11.614;2023-07-20T14:29:58;95360.84;;;30.49;47.04
72395;BME280;60384;48.152;11.614;2023-07-20T14:33:00;95358.59;;;29.82;48.01
72395;BME280;60384;48.152;11.614;2023-07-20T14:36:02;95357.50;;;29.57;48.91
72395;BME280;60384;48.152;11.614;2023-07-20T14:39:04;95355.31;;;29.74;47.99
72395;BME280;60384;48.152;11.614;2023-07-20T14:42:06;95348.16;;;29.77;48.35
72395;BME280;60384;48.152;11.614;2023-07-20T14:45:09;95356.28;;;29.58;48.25
72395;BME280;60384;48.152;11.614;2023-07-20T14:48:10;95352.94;;;29.64;48.50
72395;BME280;60384;48.152;11.614;2023-07-20T14:51:12;95348.78;;;29.37;48.33
72395;BME280;60384;48.152;11.614;2023-07-20T14:54:14;95343.56;;;29.39;48.56
72395;BME280;60384;48.152;11.614;2023-07-20T14:57:15;95346.47;;;29.36;47.89
72395;BME280;60384;48.152;11.614;2023-07-20T15:00:18;95348.31;;;29.04;48.65
72395;BME280;60384;48.152;11.614;2023-07-20T15:03:20;95336.09;;;29.40;47.77
72395;BME280;60384;48.152;11.614;2023-07-20T15:06:22;95347.53;;;29.73;47.22
72395;BME280;60384;48.152;11.614;2023-07-20T15:09:23;95338.78;;;29.52;47.31
72395;BME280;60384;48.152;11.614;2023-07-20T15:12:25;95342.03;;;29.04;48.31
72395;BME280;60384;48.152;11.614;2023-07-20T15:15:28;95334.59;;;28.54;48.76
72395;BME280;60384;48.152;11.614;2023-07-20T15:18:29;95346.03;;;28.14;48.93
72395;BME280;60384;48.152;11.614;2023-07-20T15:21:31;95334.22;;;27.88;49.31
72395;BME280;60384;48.152;11.614;2023-07-20T15:24:33;95341.72;;;28.01;48.26
72395;BME280;60384;48.152;11.614;2023-07-20T15:27:36;95327.03;;;28.45;48.07
72395;BME280;60384;48.152;11.614;2023-07-20T15:30:39;95320.06;;;28.91;47.46
72395;BME280;60384;48.152;11.614;2023-07-20T15:33:41;95324.63;;;29.07;46.87
72395;BME280;60384;48.152;11.614;2023-07-20T15:36:43;95316.72;;;28.96;47.37
72395;BME280;60384;48.152;11.614;2023-07-20T15:39:47;95315.88;;;28.87;47.39
72395;BME280;60384;48.152;11.614;2023-07-20T15:42:49;95308.03;;;28.98;47.37
72395;BME280;60384;48.152;11.614;2023-07-20T15:45:56;95310.75;;;29.10;47.25
72395;BME280;60384;48.152;11.614;2023-07-20T15:49:01;95299.81;;;29.32;46.86
72395;BME280;60384;48.152;11.614;2023-07-20T15:52:03;95306.34;;;29.13;46.91
72395;BME280;60384;48.152;11.614;2023-07-20T15:55:05;95312.09;;;29.28;47.02